Time;durP1;ratioP1;P1;durP2;ratioP2;P2;SDS_P1;SDS_P2;PMS_P1;PMS_P2;Temp;Humidity;BMP_temperature;BMP_pressure;BME280_temperature;BME280_humidity;BME280_pressure;Samples;Min_cycle;Max_cycle;Signal;HPM_P1;HPM_P2
2021/04/02 00:00:31;;;;;;;17.77;1.77;;;;;;;;;;4983771;28;20022;-58
2021/04/02 00:02:59;;;;;;;10.98;1.75;;;;;;;;;;4984403;28;20053;-60
2021/04/02 00:05:28;;;;;;;10.07;1.95;;;;;;;;;;4990133;28;20035;-58
2021/04/02 00:07:55;;;;;;;13.10;1.60;;;;;;;;;;4973523;28;20022;-59
2021/04/02 00:10:24;;;;;;;11.57;2.05;;;;;;;;;;4988577;28;20030;-58
2021/04/02 00:12:51;;;;;;;13.68;2.33;;;;;;;;;;4977517;28;20498;-58
2021/04/02 00:15:21;;;;;;;20.17;2.40;;;;;;;;;;4990600;28;20130;-60
2021/04/02 00:17:48;;;;;;;15.70;2.22;;;;;;;;;;4990870;28;20034;-61
2021/04/02 00:20:17;;;;;;;17.17;1.90;;;;;;;;;;4990940;28;20117;-59
2021/04/02 00:22:44;;;;;;;19.30;2.70;;;;;;;;;;4991478;28;20049;-59
2021/04/02 00:25:12;;;;;;;14.25;2.45;;;;;;;;;;4990764;28;20026;-64
2021/04/02 00:27:39;;;;;;;17.10;2.50;;;;;;;;;;4986701;28;20098;-59
2021/04/02 00:30:17;;;;;;;23.27;2.40;;;;;;;;;;4988540;28;20025;-59
2021/04/02 00:32:44;;;;;;;18.38;2.55;;;;;;;;;;4990615;28;20032;-59
2021/04/02 00:35:13;;;;;;;12.20;2.00;;;;;;;;;;4990552;28;20015;-59
2021/04/02 00:37:40;;;;;;;25.08;3.08;;;;;;;;;;4989911;28;20037;-59
2021/04/02 00:40:16;;;;;;;18.67;2.65;;;;;;;;;;4986660;28;20022;-60
2021/04/02 00:42:44;;;;;;;14.77;2.53;;;;;;;;;;4992966;28;20034;-60
2021/04/02 00:45:11;;;;;;;24.23;2.72;;;;;;;;;;4991884;28;20018;-60
2021/04/02 00:47:38;;;;;;;19.35;2.78;;;;;;;;;;4992313;28;20673;-62
2021/04/02 00:50:09;;;;;;;27.15;3.53;;;;;;;;;;4992035;28;20133;-60
2021/04/02 00:52:36;;;;;;;17.58;2.35;;;;;;;;;;4981029;28;20026;-59
2021/04/02 00:55:03;;;;;;;29.02;4.20;;;;;;;;;;4986671;28;20493;-61
2021/04/02 00:57:32;;;;;;;19.70;2.85;;;;;;;;;;4989674;28;20034;-58
2021/04/02 01:00:00;;;;;;;12.32;2.33;;;;;;;;;;4991440;28;20562;-58
2021/04/02 01:02:28;;;;;;;18.30;3.85;;;;;;;;;;4987579;28;20033;-58
2021/04/02 01:04:55;;;;;;;21.23;2.85;;;;;;;;;;4994443;28;20019;-59
2021/04/02 01:07:22;;;;;;;20.38;2.85;;;;;;;;;;4992711;28;20025;-59
2021/04/02 01:09:49;;;;;;;17.05;2.50;;;;;;;;;;4991291;28;20046;-56
2021/04/02 01:12:16;;;;;;;19.50;2.67;;;;;;;;;;4993081;28;20113;-52
2021/04/02 01:14:43;;;;;;;13.15;2.53;;;;;;;;;;4993691;28;20026;-61
2021/04/02 01:17:12;;;;;;;35.33;3.33;;;;;;;;;;4985007;28;20391;-56
2021/04/02 01:19:43;;;;;;;32.00;3.30;;;;;;;;;;4974016;28;20035;-58
2021/04/02 01:22:17;;;;;;;19.42;3.20;;;;;;;;;;4982174;28;20026;-59
2021/04/02 01:24:59;;;;;;;24.60;3.55;;;;;;;;;;4977797;28;20030;-59
2021/04/02 01:27:29;;;;;;;23.88;3.38;;;;;;;;;;4974460;28;20019;-60
2021/04/02 01:29:57;;;;;;;21.05;3.08;;;;;;;;;;4977433;28;20034;-59
2021/04/02 01:32:31;;;;;;;24.95;3.47;;;;;;;;;;4992912;28;20483;-62
2021/04/02 01:35:18;;;;;;;24.33;3.40;;;;;;;;;;4967033;28;20034;-57
2021/04/02 01:37:51;;;;;;;27.75;3.22;;;;;;;;;;4965222;28;20342;-59
2021/04/02 01:40:19;;;;;;;30.25;4.00;;;;;;;;;;4962536;28;20022;-59
2021/04/02 01:42:47;;;;;;;25.77;3.70;;;;;;;;;;4977442;28;20029;-58
2021/04/02 01:45:16;;;;;;;29.70;4.88;;;;;;;;;;4992160;28;20026;-59
2021/04/02 01:47:44;;;;;;;27.98;4.35;;;;;;;;;;4987451;28;20014;-58
2021/04/02 01:50:15;;;;;;;38.67;4.95;;;;;;;;;;4990011;28;20037;-58
2021/04/02 01:52:44;;;;;;;42.47;5.70;;;;;;;;;;4992698;28;20018;-60
2021/04/02 01:55:12;;;;;;;38.80;4.88;;;;;;;;;;4992791;28;20109;-54
2021/04/02 01:57:39;;;;;;;26.85;3.92;;;;;;;;;;4992649;28;20022;-58
2021/04/02 02:00:10;;;;;;;27.38;4.45;;;;;;;;;;4993111;28;20030;-70
2021/04/02 02:02:38;;;;;;;27.42;5.38;;;;;;;;;;4986386;28;20126;-61
2021/04/02 02:05:06;;;;;;;27.13;4.72;;;;;;;;;;4992757;28;20022;-61
2021/04/02 02:07:36;;;;;;;28.27;5.68;;;;;;;;;;4976206;28;20449;-59
2021/04/02 02:10:04;;;;;;;32.45;5.05;;;;;;;;;;4993537;28;20097;-58
2021/04/02 02:12:31;;;;;;;32.13;5.28;;;;;;;;;;4992289;28;20015;-58
2021/04/02 02:15:00;;;;;;;29.27;5.45;;;;;;;;;;4993402;28;20029;-58
2021/04/02 02:17:27;;;;;;;32.47;5.78;;;;;;;;;;4993442;28;20046;-58
2021/04/02 02:19:56;;;;;;;34.83;5.68;;;;;;;;;;4993307;28;20443;-59
2021/04/02 02:22:23;;;;;;;28.52;5.35;;;;;;;;;;4993280;28;20030;-57
2021/04/02 02:24:50;;;;;;;23.73;5.07;;;;;;;;;;4992912;28;20018;-57
2021/04/02 02:27:17;;;;;;;33.30;5.22;;;;;;;;;;4992811;28;20015;-58
2021/04/02 02:29:45;;;;;;;28.85;4.38;;;;;;;;;;4992352;28;20514;-58
2021/04/02 02:32:12;;;;;;;18.67;4.22;;;;;;;;;;4993322;28;20069;-57
2021/04/02 02:34:39;;;;;;;27.17;4.70;;;;;;;;;;4986816;28;20010;-58
2021/04/02 02:37:06;;;;;;;19.58;3.95;;;;;;;;;;4973854;28;20041;-58
2021/04/02 02:39:33;;;;;;;23.58;4.85;;;;;;;;;;4991414;28;20065;-58
2021/04/02 02:42:05;;;;;;;21.02;4.82;;;;;;;;;;4991578;28;20034;-58
2021/04/02 02:44:32;;;;;;;28.83;4.55;;;;;;;;;;4991482;28;20014;-58
2021/04/02 02:47:02;;;;;;;22.73;4.70;;;;;;;;;;4992208;28;20352;-57
2021/04/02 02:49:31;;;;;;;27.98;4.75;;;;;;;;;;4992615;28;20402;-55
2021/04/02 02:51:59;;;;;;;27.80;4.40;;;;;;;;;;4989272;28;20014;-54
2021/04/02 02:54:28;;;;;;;21.95;4.35;;;;;;;;;;4991901;28;20089;-50
2021/04/02 02:56:56;;;;;;;19.55;4.07;;;;;;;;;;4992517;28;20023;-59
2021/04/02 02:59:24;;;;;;;22.88;4.00;;;;;;;;;;4984303;28;20049;-58
2021/04/02 03:01:53;;;;;;;22.02;4.60;;;;;;;;;;4982514;28;20062;-54
2021/04/02 03:04:21;;;;;;;14.85;3.63;;;;;;;;;;4990660;28;20069;-58
2021/04/02 03:06:48;;;;;;;19.95;3.75;;;;;;;;;;4991830;28;20383;-53
2021/04/02 03:09:16;;;;;;;17.42;3.85;;;;;;;;;;4991105;28;20077;-55
2021/04/02 03:11:44;;;;;;;21.15;4.13;;;;;;;;;;4991826;28;20053;-59
2021/04/02 03:14:13;;;;;;;18.63;4.30;;;;;;;;;;4990897;28;20034;-56
2021/04/02 03:16:44;;;;;;;19.80;3.95;;;;;;;;;;4991819;28;20029;-55
2021/04/02 03:19:13;;;;;;;18.15;4.05;;;;;;;;;;4990780;28;20058;-58
2021/04/02 03:21:41;;;;;;;13.13;3.22;;;;;;;;;;4984476;28;20024;-58
2021/04/02 03:24:09;;;;;;;15.27;3.60;;;;;;;;;;4985444;28;20061;-56
2021/04/02 03:26:36;;;;;;;15.18;3.78;;;;;;;;;;4991689;28;20023;-59
2021/04/02 03:29:03;;;;;;;10.68;3.28;;;;;;;;;;4992179;28;20050;-59
2021/04/02 03:31:33;;;;;;;11.90;3.17;;;;;;;;;;4992507;28;20022;-57
2021/04/02 03:34:00;;;;;;;18.70;3.47;;;;;;;;;;4984573;28;20121;-59
2021/04/02 03:36:28;;;;;;;18.60;3.38;;;;;;;;;;4980993;28;20022;-58
2021/04/02 03:38:56;;;;;;;14.80;4.03;;;;;;;;;;4963170;28;20042;-58
2021/04/02 03:41:25;;;;;;;16.52;3.67;;;;;;;;;;4982925;28;20018;-57
2021/04/02 03:43:52;;;;;;;17.63;4.00;;;;;;;;;;4990321;28;20483;-59
2021/04/02 03:46:21;;;;;;;12.60;3.03;;;;;;;;;;4991835;28;20037;-59
2021/04/02 03:48:49;;;;;;;17.25;3.70;;;;;;;;;;4991919;28;20026;-59
2021/04/02 03:51:19;;;;;;;16.48;3.83;;;;;;;;;;4989287;28;20544;-58
2021/04/02 03:54:06;;;;;;;23.30;4.40;;;;;;;;;;4991476;28;20103;-59
2021/04/02 03:56:35;;;;;;;13.13;3.33;;;;;;;;;;4991779;28;20022;-59
2021/04/02 03:59:03;;;;;;;11.73;3.28;;;;;;;;;;4991005;28;20482;-58
2021/04/02 04:01:32;;;;;;;15.90;3.50;;;;;;;;;;4991838;28;20023;-59
2021/04/02 04:04:00;;;;;;;13.63;3.17;;;;;;;;;;4988921;28;20033;-59
2021/04/02 04:06:29;;;;;;;15.50;3.15;;;;;;;;;;4991042;28;20388;-59
2021/04/02 04:09:02;;;;;;;14.45;3.58;;;;;;;;;;4991061;28;20391;-58
2021/04/02 04:11:31;;;;;;;13.45;2.85;;;;;;;;;;4992087;28;20630;-58
2021/04/02 04:13:59;;;;;;;12.48;2.67;;;;;;;;;;4985895;28;20037;-59
2021/04/02 04:16:26;;;;;;;13.18;3.45;;;;;;;;;;4989965;28;20011;-59
2021/04/02 04:18:58;;;;;;;14.57;2.92;;;;;;;;;;4991346;28;20502;-58
2021/04/02 04:21:26;;;;;;;12.48;3.00;;;;;;;;;;4992166;28;20033;-59
2021/04/02 04:23:53;;;;;;;6.82;2.30;;;;;;;;;;4991406;28;20069;-58
2021/04/02 04:26:21;;;;;;;14.75;3.17;;;;;;;;;;4992049;28;20029;-59
2021/04/02 04:28:50;;;;;;;11.48;3.00;;;;;;;;;;4991388;28;20041;-59
2021/04/02 04:31:19;;;;;;;13.48;3.08;;;;;;;;;;4991843;28;20024;-59
2021/04/02 04:33:47;;;;;;;9.30;2.80;;;;;;;;;;4990936;28;20054;-60
2021/04/02 04:36:14;;;;;;;10.07;2.50;;;;;;;;;;4995048;28;20026;-59
2021/04/02 04:38:42;;;;;;;9.88;2.75;;;;;;;;;;4996094;28;20038;-59
2021/04/02 04:41:10;;;;;;;9.73;3.15;;;;;;;;;;4995937;28;20474;-59
2021/04/02 04:43:38;;;;;;;14.30;2.55;;;;;;;;;;4995842;28;20030;-60
2021/04/02 04:46:05;;;;;;;8.90;2.33;;;;;;;;;;4995896;28;20026;-60
2021/04/02 04:48:32;;;;;;;7.53;2.35;;;;;;;;;;4995804;28;20080;-60
2021/04/02 04:50:59;;;;;;;8.25;2.60;;;;;;;;;;4995750;28;20050;-59
2021/04/02 04:53:30;;;;;;;8.52;2.60;;;;;;;;;;4995803;28;20022;-59
2021/04/02 04:55:58;;;;;;;7.03;2.60;;;;;;;;;;4995801;28;20023;-59
2021/04/02 04:58:27;;;;;;;13.00;2.88;;;;;;;;;;4995646;28;20034;-59
2021/04/02 05:00:55;;;;;;;6.75;2.33;;;;;;;;;;4995487;28;20497;-59
2021/04/02 05:03:24;;;;;;;7.40;2.47;;;;;;;;;;4995586;28;20030;-59
2021/04/02 05:06:00;;;;;;;10.80;2.30;;;;;;;;;;4995553;28;20084;-59
2021/04/02 05:08:33;;;;;;;7.07;2.20;;;;;;;;;;4995290;28;20390;-60
2021/04/02 05:11:01;;;;;;;11.02;2.80;;;;;;;;;;4995318;28;20402;-59
2021/04/02 05:13:30;;;;;;;6.63;2.33;;;;;;;;;;4995233;28;20026;-60
2021/04/02 05:15:58;;;;;;;8.52;2.03;;;;;;;;;;4995413;28;20046;-59
2021/04/02 05:18:25;;;;;;;9.68;2.67;;;;;;;;;;4995078;28;20451;-60
2021/04/02 05:20:53;;;;;;;7.78;2.60;;;;;;;;;;4995339;28;20023;-59
2021/04/02 05:23:20;;;;;;;8.00;2.17;;;;;;;;;;4977927;28;20029;-60
2021/04/02 05:25:47;;;;;;;8.82;2.20;;;;;;;;;;4995166;28;20018;-59
2021/04/02 05:28:15;;;;;;;8.18;2.40;;;;;;;;;;4995104;28;20367;-59
2021/04/02 05:30:42;;;;;;;5.80;2.00;;;;;;;;;;4981060;28;20533;-58
2021/04/02 05:33:09;;;;;;;7.10;2.40;;;;;;;;;;4989898;28;20426;-58
2021/04/02 05:35:36;;;;;;;9.40;2.25;;;;;;;;;;4994278;28;20081;-59
2021/04/02 05:38:04;;;;;;;6.47;1.88;;;;;;;;;;4994108;28;20566;-58
2021/04/02 05:40:31;;;;;;;9.50;2.45;;;;;;;;;;4994313;28;20109;-59
2021/04/02 05:43:15;;;;;;;6.68;2.20;;;;;;;;;;4993876;28;20031;-59
2021/04/02 05:45:42;;;;;;;6.53;2.10;;;;;;;;;;4993995;28;20101;-59
2021/04/02 05:48:10;;;;;;;6.10;1.92;;;;;;;;;;4993825;28;20031;-59
2021/04/02 05:50:37;;;;;;;8.68;1.90;;;;;;;;;;4994590;28;20117;-59
2021/04/02 05:53:09;;;;;;;7.22;2.38;;;;;;;;;;4994536;28;20491;-59
2021/04/02 05:55:40;;;;;;;7.78;1.67;;;;;;;;;;4994490;28;20172;-59
2021/04/02 05:58:08;;;;;;;5.15;1.83;;;;;;;;;;4994509;28;20031;-59
2021/04/02 06:00:36;;;;;;;7.07;1.90;;;;;;;;;;4994384;28;20027;-59
2021/04/02 06:03:05;;;;;;;9.68;2.08;;;;;;;;;;4994555;28;20030;-60
2021/04/02 06:05:32;;;;;;;7.07;2.38;;;;;;;;;;4994464;28;20021;-59
2021/04/02 06:07:59;;;;;;;4.82;2.00;;;;;;;;;;4994140;28;20027;-59
2021/04/02 06:10:27;;;;;;;9.55;1.98;;;;;;;;;;4994417;28;20027;-59
2021/04/02 06:12:56;;;;;;;6.22;1.92;;;;;;;;;;4994279;28;20029;-59
2021/04/02 06:15:23;;;;;;;4.50;1.60;;;;;;;;;;4994282;28;20022;-59
2021/04/02 06:18:00;;;;;;;7.18;1.90;;;;;;;;;;4994152;28;20041;-59
2021/04/02 06:20:29;;;;;;;6.70;1.95;;;;;;;;;;4994313;28;20463;-59
2021/04/02 06:23:03;;;;;;;9.35;2.10;;;;;;;;;;4993823;28;20389;-59
2021/04/02 06:25:30;;;;;;;5.60;1.80;;;;;;;;;;4994108;28;20029;-59
2021/04/02 06:27:57;;;;;;;7.72;2.10;;;;;;;;;;4994024;28;20031;-59
2021/04/02 06:30:25;;;;;;;5.60;1.70;;;;;;;;;;4994173;28;20023;-59
2021/04/02 06:32:52;;;;;;;5.13;1.70;;;;;;;;;;4993899;28;20426;-59
2021/04/02 06:35:20;;;;;;;6.05;2.20;;;;;;;;;;4993741;28;20509;-59
2021/04/02 06:37:51;;;;;;;5.30;1.30;;;;;;;;;;4993897;28;20045;-59
2021/04/02 06:40:20;;;;;;;5.03;1.65;;;;;;;;;;4993827;28;20065;-58
2021/04/02 06:42:47;;;;;;;7.53;1.83;;;;;;;;;;4993617;28;20101;-59
2021/04/02 06:45:14;;;;;;;4.97;1.58;;;;;;;;;;4985685;28;20105;-59
2021/04/02 06:47:42;;;;;;;7.72;2.03;;;;;;;;;;4992749;28;20117;-59
2021/04/02 06:50:23;;;;;;;5.68;1.60;;;;;;;;;;4992283;28;20029;-59
2021/04/02 06:52:51;;;;;;;6.05;1.67;;;;;;;;;;4992227;28;20475;-59
2021/04/02 06:55:19;;;;;;;3.45;1.50;;;;;;;;;;4993626;28;20386;-59
2021/04/02 06:57:50;;;;;;;3.08;1.45;;;;;;;;;;4992644;28;20096;-59
2021/04/02 07:00:19;;;;;;;4.63;1.70;;;;;;;;;;4993423;28;20026;-59
2021/04/02 07:02:46;;;;;;;8.02;1.90;;;;;;;;;;4992893;28;20483;-58
2021/04/02 07:05:16;;;;;;;6.22;1.25;;;;;;;;;;4993291;28;20549;-60
2021/04/02 07:07:45;;;;;;;3.75;1.23;;;;;;;;;;4975685;28;20076;-59
2021/04/02 07:10:12;;;;;;;6.07;1.35;;;;;;;;;;4993186;28;20077;-60
2021/04/02 07:12:40;;;;;;;5.25;1.55;;;;;;;;;;4993127;28;20537;-59
2021/04/02 07:15:07;;;;;;;3.38;1.50;;;;;;;;;;4993094;28;20113;-59
2021/04/02 07:17:35;;;;;;;6.45;1.42;;;;;;;;;;4992848;28;20108;-60
2021/04/02 07:20:02;;;;;;;4.10;1.40;;;;;;;;;;4993056;28;20383;-60
2021/04/02 07:22:32;;;;;;;4.43;1.33;;;;;;;;;;4992911;28;20030;-59
2021/04/02 07:25:00;;;;;;;5.68;1.58;;;;;;;;;;4992868;28;20030;-60
2021/04/02 07:27:27;;;;;;;5.75;1.40;;;;;;;;;;4993019;28;20030;-59
2021/04/02 07:29:56;;;;;;;4.05;1.33;;;;;;;;;;4993058;28;20490;-60
2021/04/02 07:32:23;;;;;;;4.70;1.55;;;;;;;;;;4992653;28;20031;-60
2021/04/02 07:34:51;;;;;;;5.28;1.92;;;;;;;;;;4992711;28;20033;-60
2021/04/02 07:37:21;;;;;;;3.72;1.40;;;;;;;;;;4992936;28;20125;-59
2021/04/02 07:39:49;;;;;;;4.57;1.20;;;;;;;;;;4992868;28;20037;-60
2021/04/02 07:42:20;;;;;;;4.32;1.38;;;;;;;;;;4992528;28;20101;-59
2021/04/02 07:44:52;;;;;;;5.20;1.40;;;;;;;;;;4992959;28;20113;-59
2021/04/02 07:47:19;;;;;;;5.47;1.42;;;;;;;;;;4992899;28;20088;-59
2021/04/02 07:49:53;;;;;;;4.13;1.20;;;;;;;;;;4992723;28;20026;-59
2021/04/02 07:52:34;;;;;;;4.68;1.65;;;;;;;;;;4992726;28;20026;-59
2021/04/02 07:55:08;;;;;;;5.22;1.45;;;;;;;;;;4992678;28;20018;-59
2021/04/02 07:57:51;;;;;;;3.90;1.20;;;;;;;;;;4992628;28;20030;-58
2021/04/02 08:00:18;;;;;;;3.42;1.20;;;;;;;;;;4992658;28;20049;-58
2021/04/02 08:02:45;;;;;;;4.20;1.60;;;;;;;;;;4992336;28;20040;-59
2021/04/02 08:05:15;;;;;;;7.72;1.23;;;;;;;;;;4992538;28;20027;-59
2021/04/02 08:07:43;;;;;;;3.47;1.23;;;;;;;;;;4992451;28;20049;-59
2021/04/02 08:10:12;;;;;;;23.05;1.95;;;;;;;;;;4995358;28;20032;-59
2021/04/02 08:12:39;;;;;;;3.63;1.30;;;;;;;;;;4996320;28;20027;-58
2021/04/02 08:15:08;;;;;;;4.75;1.35;;;;;;;;;;4996566;28;20027;-59
2021/04/02 08:17:38;;;;;;;3.17;1.27;;;;;;;;;;4996456;28;20034;-59
2021/04/02 08:20:05;;;;;;;3.67;1.20;;;;;;;;;;4996314;28;20024;-58
2021/04/02 08:22:33;;;;;;;4.13;1.13;;;;;;;;;;4995977;28;20022;-59
2021/04/02 08:25:02;;;;;;;4.57;1.13;;;;;;;;;;4996373;28;20098;-59
2021/04/02 08:27:31;;;;;;;3.03;1.08;;;;;;;;;;4996091;28;20501;-59
2021/04/02 08:30:03;;;;;;;4.43;1.15;;;;;;;;;;4996218;28;20098;-59
2021/04/02 08:32:33;;;;;;;3.35;1.30;;;;;;;;;;4996223;28;20027;-59
2021/04/02 08:35:00;;;;;;;3.40;0.85;;;;;;;;;;4996369;28;20049;-59
2021/04/02 08:37:29;;;;;;;3.33;1.30;;;;;;;;;;4995761;28;20034;-59
2021/04/02 08:40:00;;;;;;;5.63;1.13;;;;;;;;;;4995868;28;20113;-58
2021/04/02 08:42:31;;;;;;;3.63;1.17;;;;;;;;;;4995979;28;20069;-59
2021/04/02 08:45:05;;;;;;;5.07;1.00;;;;;;;;;;4995850;28;20030;-59
2021/04/02 08:47:32;;;;;;;4.07;1.27;;;;;;;;;;4995890;28;20041;-59
2021/04/02 08:49:59;;;;;;;3.85;1.48;;;;;;;;;;4995598;28;20018;-59
2021/04/02 08:52:30;;;;;;;2.22;0.90;;;;;;;;;;4995778;28;20042;-59
2021/04/02 08:55:01;;;;;;;3.20;1.38;;;;;;;;;;4995721;28;20029;-59
2021/04/02 08:57:29;;;;;;;2.70;1.45;;;;;;;;;;4995580;28;20030;-59
2021/04/02 08:59:57;;;;;;;5.82;1.10;;;;;;;;;;4995707;28;20023;-59
2021/04/02 09:02:27;;;;;;;2.78;1.00;;;;;;;;;;4995246;28;20023;-59
2021/04/02 09:04:56;;;;;;;3.05;0.88;;;;;;;;;;4995569;28;20430;-59
2021/04/02 09:07:23;;;;;;;5.75;1.42;;;;;;;;;;4995411;28;20029;-59
2021/04/02 09:09:50;;;;;;;1.42;0.82;;;;;;;;;;4995457;28;20056;-59
2021/04/02 09:12:18;;;;;;;3.47;1.15;;;;;;;;;;4995408;28;20098;-59
2021/04/02 09:14:46;;;;;;;2.40;1.05;;;;;;;;;;4995343;28;20035;-59
2021/04/02 09:17:20;;;;;;;4.80;1.10;;;;;;;;;;4995179;28;20022;-59
2021/04/02 09:19:47;;;;;;;3.85;1.00;;;;;;;;;;4995290;28;20026;-59
2021/04/02 09:22:14;;;;;;;3.78;1.13;;;;;;;;;;4994540;28;20497;-59
2021/04/02 09:24:42;;;;;;;3.50;1.30;;;;;;;;;;4995366;28;20058;-59
2021/04/02 09:27:10;;;;;;;2.17;0.88;;;;;;;;;;4995102;28;20045;-59
2021/04/02 09:29:37;;;;;;;4.65;1.25;;;;;;;;;;4994994;28;20030;-59
2021/04/02 09:32:05;;;;;;;2.22;0.95;;;;;;;;;;4994950;28;20533;-59
2021/04/02 09:34:32;;;;;;;3.90;1.00;;;;;;;;;;4995120;28;20031;-59
2021/04/02 09:37:00;;;;;;;4.18;1.30;;;;;;;;;;4994920;28;20019;-59
2021/04/02 09:39:29;;;;;;;2.80;0.90;;;;;;;;;;4995107;28;20033;-59
2021/04/02 09:41:58;;;;;;;5.20;1.17;;;;;;;;;;4994890;28;20097;-59
2021/04/02 09:44:26;;;;;;;3.70;0.90;;;;;;;;;;4994567;28;20482;-59
2021/04/02 09:47:00;;;;;;;3.38;1.10;;;;;;;;;;4994722;28;20033;-58
2021/04/02 09:49:27;;;;;;;2.63;0.85;;;;;;;;;;4994921;28;20150;-59
2021/04/02 09:51:56;;;;;;;1.50;0.50;;;;;;;;;;4994623;28;20027;-59
2021/04/02 09:54:24;;;;;;;4.18;1.00;;;;;;;;;;4994571;28;20420;-58
2021/04/02 09:56:52;;;;;;;4.22;0.80;;;;;;;;;;4994602;28;20072;-58
2021/04/02 09:59:19;;;;;;;2.38;1.00;;;;;;;;;;4994490;28;20069;-59
2021/04/02 10:01:47;;;;;;;4.40;1.02;;;;;;;;;;4994237;28;20023;-59
2021/04/02 10:04:14;;;;;;;3.97;1.02;;;;;;;;;;4994407;28;20034;-59
2021/04/02 10:06:42;;;;;;;2.45;0.90;;;;;;;;;;4994463;28;20022;-58
2021/04/02 10:09:09;;;;;;;4.30;0.85;;;;;;;;;;4994190;28;20100;-59
2021/04/02 10:11:37;;;;;;;4.07;0.90;;;;;;;;;;4994225;28;20108;-59
2021/04/02 10:14:05;;;;;;;5.80;1.10;;;;;;;;;;4994183;28;20605;-59
2021/04/02 10:16:32;;;;;;;12.40;0.90;;;;;;;;;;4994144;28;20497;-59
2021/04/02 10:19:01;;;;;;;2.83;0.80;;;;;;;;;;4994118;28;20037;-58
2021/04/02 10:21:28;;;;;;;3.78;0.90;;;;;;;;;;4994290;28;20077;-59
2021/04/02 10:23:55;;;;;;;2.17;0.93;;;;;;;;;;4993932;28;20039;-59
2021/04/02 10:26:22;;;;;;;1.48;0.80;;;;;;;;;;4993774;28;20406;-58
2021/04/02 10:28:49;;;;;;;2.97;1.00;;;;;;;;;;4994189;28;20085;-59
2021/04/02 10:31:16;;;;;;;6.18;1.10;;;;;;;;;;4993867;28;20053;-58
2021/04/02 10:33:43;;;;;;;2.25;0.85;;;;;;;;;;4992856;28;20022;-59
2021/04/02 10:36:10;;;;;;;2.55;0.70;;;;;;;;;;4993959;28;20173;-58
2021/04/02 10:38:38;;;;;;;2.85;0.98;;;;;;;;;;4993727;28;20069;-58
2021/04/02 10:41:05;;;;;;;2.70;1.02;;;;;;;;;;4993521;28;20430;-59
2021/04/02 10:43:32;;;;;;;1.92;1.00;;;;;;;;;;4993683;28;20421;-59
2021/04/02 10:45:59;;;;;;;2.92;1.15;;;;;;;;;;4993604;28;20025;-58
2021/04/02 10:48:27;;;;;;;2.30;0.65;;;;;;;;;;4993549;28;20023;-59
2021/04/02 10:50:54;;;;;;;2.83;1.00;;;;;;;;;;4993736;28;20037;-59
2021/04/02 10:53:22;;;;;;;3.17;1.00;;;;;;;;;;4992469;28;20030;-59
2021/04/02 10:55:49;;;;;;;2.20;0.95;;;;;;;;;;4993342;28;20489;-58
2021/04/02 10:58:17;;;;;;;3.13;1.17;;;;;;;;;;4993469;28;20113;-58
2021/04/02 11:00:44;;;;;;;4.15;1.10;;;;;;;;;;4993560;28;20410;-58
2021/04/02 11:03:11;;;;;;;3.55;1.08;;;;;;;;;;4993156;28;20025;-59
2021/04/02 11:05:49;;;;;;;4.13;1.20;;;;;;;;;;5110021;27;20418;-59
2021/04/02 11:08:16;;;;;;;2.40;1.00;;;;;;;;;;5110043;28;20023;-59
2021/04/02 11:10:47;;;;;;;3.05;0.90;;;;;;;;;;5109827;28;20023;-59
2021/04/02 11:13:14;;;;;;;4.57;1.00;;;;;;;;;;5109903;28;20055;-59
2021/04/02 11:15:41;;;;;;;1.48;0.70;;;;;;;;;;5109893;28;20019;-59
2021/04/02 11:18:08;;;;;;;3.28;0.75;;;;;;;;;;5109729;28;20070;-60
2021/04/02 11:20:35;;;;;;;3.92;1.00;;;;;;;;;;5109724;28;20012;-60
2021/04/02 11:23:02;;;;;;;5.00;0.80;;;;;;;;;;5109534;28;20502;-60
2021/04/02 11:25:30;;;;;;;5.03;1.23;;;;;;;;;;5108281;28;20066;-60
2021/04/02 11:27:57;;;;;;;1.85;0.93;;;;;;;;;;5109560;28;20077;-59
2021/04/02 11:30:24;;;;;;;3.00;0.90;;;;;;;;;;5109639;28;20024;-59
2021/04/02 11:32:52;;;;;;;4.22;1.27;;;;;;;;;;5109644;28;20020;-59
2021/04/02 11:35:19;;;;;;;4.85;1.38;;;;;;;;;;5109390;28;20032;-59
2021/04/02 11:37:47;;;;;;;2.90;1.10;;;;;;;;;;5109181;28;20471;-59
2021/04/02 11:40:15;;;;;;;5.40;1.10;;;;;;;;;;5109487;28;20062;-59
2021/04/02 11:42:42;;;;;;;4.22;0.90;;;;;;;;;;5109148;28;20024;-59
2021/04/02 11:45:10;;;;;;;4.05;1.00;;;;;;;;;;5109106;28;20497;-59
2021/04/02 11:47:37;;;;;;;2.42;0.90;;;;;;;;;;5109385;28;20524;-61
2021/04/02 11:50:07;;;;;;;2.30;0.70;;;;;;;;;;5109165;28;20023;-60
2021/04/02 11:52:34;;;;;;;2.40;0.82;;;;;;;;;;5109074;28;20024;-60
2021/04/02 11:55:01;;;;;;;2.28;0.88;;;;;;;;;;5107968;28;20059;-59
2021/04/02 11:57:28;;;;;;;1.83;0.73;;;;;;;;;;5107782;28;20054;-61
2021/04/02 11:59:55;;;;;;;2.33;0.70;;;;;;;;;;5108974;28;20084;-59
2021/04/02 12:02:22;;;;;;;2.15;0.90;;;;;;;;;;5109016;28;20016;-60
2021/04/02 12:04:49;;;;;;;5.90;1.02;;;;;;;;;;5108674;28;20101;-60
2021/04/02 12:07:16;;;;;;;4.88;1.15;;;;;;;;;;5108911;28;20035;-59
2021/04/02 12:09:43;;;;;;;3.20;0.93;;;;;;;;;;5108950;28;20031;-61
2021/04/02 12:12:10;;;;;;;3.10;0.80;;;;;;;;;;5108601;28;20026;-59
2021/04/02 12:14:37;;;;;;;3.00;0.65;;;;;;;;;;5107430;28;20023;-59
2021/04/02 12:17:04;;;;;;;2.05;1.02;;;;;;;;;;5095546;28;20371;-59
2021/04/02 12:19:31;;;;;;;3.50;1.05;;;;;;;;;;5095081;28;20024;-60
2021/04/02 12:21:58;;;;;;;2.97;1.10;;;;;;;;;;5094769;28;20044;-59
2021/04/02 12:24:25;;;;;;;4.70;1.00;;;;;;;;;;5093801;28;20062;-59
2021/04/02 12:26:52;;;;;;;3.58;1.02;;;;;;;;;;5094900;28;20039;-59
2021/04/02 12:29:19;;;;;;;2.85;0.80;;;;;;;;;;5094692;28;20028;-59
2021/04/02 12:31:46;;;;;;;4.45;0.90;;;;;;;;;;5094857;28;20065;-59
2021/04/02 12:34:13;;;;;;;4.13;0.75;;;;;;;;;;5091441;28;20040;-60
2021/04/02 12:36:40;;;;;;;2.25;0.90;;;;;;;;;;5085104;28;20469;-59
2021/04/02 12:39:07;;;;;;;3.28;1.00;;;;;;;;;;5073695;28;20035;-59
2021/04/02 12:41:34;;;;;;;4.10;1.40;;;;;;;;;;5074257;28;20032;-60
2021/04/02 12:44:01;;;;;;;5.05;1.10;;;;;;;;;;5072270;28;20048;-60
2021/04/02 12:46:28;;;;;;;3.72;0.90;;;;;;;;;;5072863;28;20117;-58
2021/04/02 12:48:55;;;;;;;5.55;1.00;;;;;;;;;;5071893;28;20052;-59
2021/04/02 12:51:22;;;;;;;4.53;0.93;;;;;;;;;;5086308;28;20103;-59
2021/04/02 12:53:50;;;;;;;5.03;1.23;;;;;;;;;;5072649;28;20070;-59
2021/04/02 12:56:16;;;;;;;3.72;1.10;;;;;;;;;;5073540;28;20032;-58
2021/04/02 12:58:44;;;;;;;9.13;1.23;;;;;;;;;;5072928;28;20028;-60
2021/04/02 13:01:11;;;;;;;10.93;1.50;;;;;;;;;;5073863;28;20096;-60
2021/04/02 13:03:38;;;;;;;9.10;1.40;;;;;;;;;;5073264;28;20017;-60
2021/04/02 13:06:06;;;;;;;9.30;1.52;;;;;;;;;;5073294;28;20460;-60
2021/04/02 13:08:33;;;;;;;24.15;2.33;;;;;;;;;;5072063;28;20468;-59
2021/04/02 13:11:00;;;;;;;8.52;1.45;;;;;;;;;;5073687;28;20030;-59
2021/04/02 13:13:28;;;;;;;10.02;1.50;;;;;;;;;;5073433;28;20028;-59
2021/04/02 13:15:55;;;;;;;8.82;1.67;;;;;;;;;;5073493;28;20064;-59
2021/04/02 13:18:22;;;;;;;12.30;1.77;;;;;;;;;;5073005;28;20478;-58
2021/04/02 13:20:49;;;;;;;8.73;1.50;;;;;;;;;;5073176;28;20028;-59
2021/04/02 13:23:16;;;;;;;11.57;1.30;;;;;;;;;;5072602;28;20337;-59
2021/04/02 13:25:43;;;;;;;10.25;1.40;;;;;;;;;;5071926;28;20125;-59
2021/04/02 13:28:10;;;;;;;11.38;1.52;;;;;;;;;;5072224;28;20085;-60
2021/04/02 13:30:37;;;;;;;11.88;1.60;;;;;;;;;;5071772;28;20024;-59
2021/04/02 13:33:04;;;;;;;7.80;1.58;;;;;;;;;;5072629;28;20476;-59
2021/04/02 13:35:32;;;;;;;8.90;1.75;;;;;;;;;;5071551;28;20023;-59
2021/04/02 13:37:59;;;;;;;6.05;1.52;;;;;;;;;;5079695;28;20028;-60
2021/04/02 13:40:28;;;;;;;6.97;1.30;;;;;;;;;;5073270;28;20100;-60
2021/04/02 13:42:56;;;;;;;10.40;1.50;;;;;;;;;;5072778;28;20036;-60
2021/04/02 13:45:23;;;;;;;5.53;1.35;;;;;;;;;;5072311;28;20036;-58
2021/04/02 13:47:50;;;;;;;11.23;1.70;;;;;;;;;;5079034;28;20387;-60
2021/04/02 13:50:21;;;;;;;12.23;1.67;;;;;;;;;;5081035;28;20063;-60
2021/04/02 13:52:48;;;;;;;10.52;1.48;;;;;;;;;;5077505;28;20043;-60
2021/04/02 13:55:16;;;;;;;11.73;2.08;;;;;;;;;;5084492;28;20043;-60
2021/04/02 13:57:44;;;;;;;6.38;1.63;;;;;;;;;;5090751;28;20024;-59
2021/04/02 14:00:15;;;;;;;6.32;1.70;;;;;;;;;;5091543;28;20024;-59
2021/04/02 14:02:42;;;;;;;9.73;1.75;;;;;;;;;;5090775;28;20028;-59
2021/04/02 14:05:10;;;;;;;10.80;1.60;;;;;;;;;;5089133;28;20052;-60
2021/04/02 14:07:37;;;;;;;12.70;1.83;;;;;;;;;;5090838;28;20020;-60
2021/04/02 14:10:09;;;;;;;9.57;1.67;;;;;;;;;;5092128;28;20032;-59
2021/04/02 14:12:36;;;;;;;11.40;1.95;;;;;;;;;;5093312;28;20023;-59
2021/04/02 14:15:06;;;;;;;9.00;1.83;;;;;;;;;;5093100;28;20036;-59
2021/04/02 14:17:33;;;;;;;8.95;1.90;;;;;;;;;;5093064;28;20526;-59
2021/04/02 14:20:00;;;;;;;6.13;1.40;;;;;;;;;;5093611;28;20522;-59
2021/04/02 14:22:27;;;;;;;9.63;1.40;;;;;;;;;;5093106;28;20028;-59
2021/04/02 14:24:54;;;;;;;11.80;1.88;;;;;;;;;;5092935;28;20024;-59
2021/04/02 14:27:21;;;;;;;8.70;1.60;;;;;;;;;;5093096;28;20024;-59
2021/04/02 14:29:48;;;;;;;10.93;2.00;;;;;;;;;;5092919;28;20044;-60
2021/04/02 14:32:16;;;;;;;7.38;1.65;;;;;;;;;;5092773;28;20031;-59
2021/04/02 14:34:43;;;;;;;10.18;1.75;;;;;;;;;;5093412;28;20036;-60
2021/04/02 14:37:11;;;;;;;5.03;1.33;;;;;;;;;;5093043;28;20372;-59
2021/04/02 14:39:39;;;;;;;8.07;1.58;;;;;;;;;;5092580;28;20468;-60
2021/04/02 14:42:06;;;;;;;5.07;1.48;;;;;;;;;;5092676;28;20099;-59
2021/04/02 14:44:33;;;;;;;11.13;1.45;;;;;;;;;;5092802;28;20082;-59